sensor_id;sensor_type;location;lat;lon;timestamp;P1;durP1;ratioP1;P2;durP2;ratioP2
71383;SDS011;67558;52.166;5.004;2023-08-08T00:00:47;24.63;;;23.33;;
71383;SDS011;67558;52.166;5.004;2023-08-08T00:03:13;23.60;;;21.85;;
71383;SDS011;67558;52.166;5.004;2023-08-08T00:05:39;25.80;;;24.45;;
71383;SDS011;67558;52.166;5.004;2023-08-08T00:08:05;22.55;;;21.50;;
71383;SDS011;67558;52.166;5.004;2023-08-08T00:10:32;24.83;;;23.80;;
71383;SDS011;67558;52.166;5.004;2023-08-08T00:12:58;24.27;;;23.08;;
71383;SDS011;67558;52.166;5.004;2023-08-08T00:15:24;26.50;;;25.10;;
71383;SDS011;67558;52.166;5.004;2023-08-08T00:17:50;26.08;;;24.80;;
71383;SDS011;67558;52.166;5.004;2023-08-08T00:20:16;23.95;;;22.85;;
71383;SDS011;67558;52.166;5.004;2023-08-08T00:22:43;29.48;;;28.10;;
71383;SDS011;67558;52.166;5.004;2023-08-08T00:25:09;26.05;;;24.92;;
71383;SDS011;67558;52.166;5.004;2023-08-08T00:27:35;22.45;;;21.27;;
71383;SDS011;67558;52.166;5.004;2023-08-08T00:30:00;22.80;;;21.50;;
71383;SDS011;67558;52.166;5.004;2023-08-08T00:32:27;33.08;;;31.58;;
71383;SDS011;67558;52.166;5.004;2023-08-08T00:34:53;25.73;;;24.55;;
71383;SDS011;67558;52.166;5.004;2023-08-08T00:37:20;24.90;;;23.70;;
71383;SDS011;67558;52.166;5.004;2023-08-08T00:39:47;24.90;;;23.75;;
71383;SDS011;67558;52.166;5.004;2023-08-08T00:42:13;23.67;;;22.27;;
71383;SDS011;67558;52.166;5.004;2023-08-08T00:44:39;23.55;;;22.55;;
71383;SDS011;67558;52.166;5.004;2023-08-08T00:47:10;21.85;;;20.60;;
71383;SDS011;67558;52.166;5.004;2023-08-08T00:49:37;23.55;;;22.45;;
71383;SDS011;67558;52.166;5.004;2023-08-08T00:52:03;23.55;;;22.05;;
71383;SDS011;67558;52.166;5.004;2023-08-08T00:54:31;26.13;;;24.67;;
71383;SDS011;67558;52.166;5.004;2023-08-08T00:56:57;26.65;;;25.38;;
71383;SDS011;67558;52.166;5.004;2023-08-08T00:59:23;28.98;;;27.73;;
71383;SDS011;67558;52.166;5.004;2023-08-08T01:01:50;23.77;;;22.30;;
71383;SDS011;67558;52.166;5.004;2023-08-08T01:04:16;25.08;;;23.65;;
71383;SDS011;67558;52.166;5.004;2023-08-08T01:09:48;23.73;;;22.73;;
71383;SDS011;67558;52.166;5.004;2023-08-08T01:12:20;22.00;;;20.95;;
71383;SDS011;67558;52.166;5.004;2023-08-08T01:14:46;20.77;;;19.70;;
71383;SDS011;67558;52.166;5.004;2023-08-08T01:17:12;24.00;;;22.85;;
71383;SDS011;67558;52.166;5.004;2023-08-08T01:19:39;23.80;;;22.15;;
71383;SDS011;67558;52.166;5.004;2023-08-08T01:22:06;26.13;;;24.90;;
71383;SDS011;67558;52.166;5.004;2023-08-08T01:24:42;22.33;;;21.42;;
71383;SDS011;67558;52.166;5.004;2023-08-08T01:27:10;25.52;;;24.05;;
71383;SDS011;67558;52.166;5.004;2023-08-08T01:29:36;22.15;;;20.80;;
71383;SDS011;67558;52.166;5.004;2023-08-08T01:32:03;23.67;;;22.55;;
71383;SDS011;67558;52.166;5.004;2023-08-08T01:34:28;23.70;;;22.65;;
71383;SDS011;67558;52.166;5.004;2023-08-08T01:37:44;25.83;;;24.80;;
71383;SDS011;67558;52.166;5.004;2023-08-08T01:39:46;22.35;;;21.17;;
71383;SDS011;67558;52.166;5.004;2023-08-08T01:42:13;25.05;;;23.83;;
71383;SDS011;67558;52.166;5.004;2023-08-08T01:44:41;26.70;;;25.58;;
71383;SDS011;67558;52.166;5.004;2023-08-08T01:47:07;23.27;;;22.00;;
71383;SDS011;67558;52.166;5.004;2023-08-08T01:49:34;24.02;;;22.85;;
71383;SDS011;67558;52.166;5.004;2023-08-08T01:52:00;20.92;;;19.75;;
71383;SDS011;67558;52.166;5.004;2023-08-08T01:54:26;23.23;;;22.30;;
71383;SDS011;67558;52.166;5.004;2023-08-08T01:56:52;25.35;;;24.20;;
71383;SDS011;67558;52.166;5.004;2023-08-08T01:59:18;24.38;;;23.33;;
71383;SDS011;67558;52.166;5.004;2023-08-08T02:01:44;21.70;;;20.80;;
71383;SDS011;67558;52.166;5.004;2023-08-08T02:04:10;23.33;;;22.52;;
71383;SDS011;67558;52.166;5.004;2023-08-08T02:06:35;24.00;;;22.83;;
71383;SDS011;67558;52.166;5.004;2023-08-08T02:09:01;24.83;;;23.92;;
71383;SDS011;67558;52.166;5.004;2023-08-08T02:11:27;26.90;;;25.88;;
71383;SDS011;67558;52.166;5.004;2023-08-08T02:13:53;24.65;;;23.75;;
71383;SDS011;67558;52.166;5.004;2023-08-08T02:16:18;25.55;;;24.45;;
71383;SDS011;67558;52.166;5.004;2023-08-08T02:18:44;24.00;;;22.75;;
71383;SDS011;67558;52.166;5.004;2023-08-08T02:21:10;24.27;;;23.30;;
71383;SDS011;67558;52.166;5.004;2023-08-08T02:23:35;25.33;;;24.13;;
71383;SDS011;67558;52.166;5.004;2023-08-08T02:26:02;23.52;;;22.63;;
71383;SDS011;67558;52.166;5.004;2023-08-08T02:28:28;22.58;;;21.65;;
71383;SDS011;67558;52.166;5.004;2023-08-08T02:30:54;23.20;;;22.30;;
71383;SDS011;67558;52.166;5.004;2023-08-08T02:33:23;24.13;;;23.30;;
71383;SDS011;67558;52.166;5.004;2023-08-08T02:35:50;21.52;;;20.73;;
71383;SDS011;67558;52.166;5.004;2023-08-08T02:38:16;23.23;;;22.42;;
71383;SDS011;67558;52.166;5.004;2023-08-08T02:40:42;22.25;;;21.42;;
71383;SDS011;67558;52.166;5.004;2023-08-08T02:43:08;32.25;;;30.85;;
71383;SDS011;67558;52.166;5.004;2023-08-08T02:45:35;23.00;;;22.20;;
71383;SDS011;67558;52.166;5.004;2023-08-08T02:48:02;22.90;;;21.83;;
71383;SDS011;67558;52.166;5.004;2023-08-08T02:50:28;21.40;;;20.40;;
71383;SDS011;67558;52.166;5.004;2023-08-08T02:52:54;20.15;;;19.30;;
71383;SDS011;67558;52.166;5.004;2023-08-08T02:55:20;26.55;;;25.27;;
71383;SDS011;67558;52.166;5.004;2023-08-08T02:57:46;22.02;;;20.75;;
71383;SDS011;67558;52.166;5.004;2023-08-08T03:00:13;22.40;;;21.52;;
71383;SDS011;67558;52.166;5.004;2023-08-08T03:02:39;23.75;;;22.88;;
71383;SDS011;67558;52.166;5.004;2023-08-08T03:05:05;24.05;;;22.83;;
71383;SDS011;67558;52.166;5.004;2023-08-08T03:07:30;24.05;;;23.02;;
71383;SDS011;67558;52.166;5.004;2023-08-08T03:09:56;21.23;;;20.15;;
71383;SDS011;67558;52.166;5.004;2023-08-08T03:12:21;22.15;;;21.33;;
71383;SDS011;67558;52.166;5.004;2023-08-08T03:14:47;22.13;;;21.33;;
71383;SDS011;67558;52.166;5.004;2023-08-08T03:17:13;23.80;;;22.83;;
71383;SDS011;67558;52.166;5.004;2023-08-08T03:19:39;26.45;;;25.52;;
71383;SDS011;67558;52.166;5.004;2023-08-08T03:22:05;23.48;;;22.67;;
71383;SDS011;67558;52.166;5.004;2023-08-08T03:24:31;23.40;;;22.35;;
71383;SDS011;67558;52.166;5.004;2023-08-08T03:26:57;23.70;;;22.98;;
71383;SDS011;67558;52.166;5.004;2023-08-08T03:29:23;22.38;;;21.58;;
71383;SDS011;67558;52.166;5.004;2023-08-08T03:31:49;25.55;;;24.52;;
71383;SDS011;67558;52.166;5.004;2023-08-08T03:34:16;23.20;;;22.20;;
71383;SDS011;67558;52.166;5.004;2023-08-08T03:36:43;23.25;;;22.20;;
71383;SDS011;67558;52.166;5.004;2023-08-08T03:39:08;19.85;;;19.00;;
71383;SDS011;67558;52.166;5.004;2023-08-08T03:41:35;23.73;;;22.67;;
71383;SDS011;67558;52.166;5.004;2023-08-08T03:44:02;26.52;;;25.52;;
71383;SDS011;67558;52.166;5.004;2023-08-08T03:46:29;20.90;;;19.98;;
71383;SDS011;67558;52.166;5.004;2023-08-08T03:48:56;21.63;;;20.83;;
71383;SDS011;67558;52.166;5.004;2023-08-08T03:51:22;22.50;;;21.45;;
71383;SDS011;67558;52.166;5.004;2023-08-08T03:53:48;22.20;;;20.85;;
71383;SDS011;67558;52.166;5.004;2023-08-08T03:56:14;19.80;;;19.10;;
71383;SDS011;67558;52.166;5.004;2023-08-08T03:58:40;21.02;;;20.23;;
71383;SDS011;67558;52.166;5.004;2023-08-08T04:01:06;21.58;;;20.77;;
71383;SDS011;67558;52.166;5.004;2023-08-08T04:03:32;23.50;;;22.60;;
71383;SDS011;67558;52.166;5.004;2023-08-08T04:05:59;21.23;;;20.38;;
71383;SDS011;67558;52.166;5.004;2023-08-08T04:08:25;20.48;;;19.48;;
71383;SDS011;67558;52.166;5.004;2023-08-08T04:10:51;23.83;;;22.83;;
71383;SDS011;67558;52.166;5.004;2023-08-08T04:13:18;21.05;;;20.13;;
71383;SDS011;67558;52.166;5.004;2023-08-08T04:15:43;21.13;;;20.33;;
71383;SDS011;67558;52.166;5.004;2023-08-08T04:18:10;21.90;;;21.20;;
71383;SDS011;67558;52.166;5.004;2023-08-08T04:20:35;22.23;;;21.27;;
71383;SDS011;67558;52.166;5.004;2023-08-08T04:23:01;19.65;;;18.95;;
71383;SDS011;67558;52.166;5.004;2023-08-08T04:25:29;20.75;;;19.92;;
71383;SDS011;67558;52.166;5.004;2023-08-08T04:27:56;20.05;;;19.10;;
71383;SDS011;67558;52.166;5.004;2023-08-08T04:30:22;20.90;;;20.10;;
71383;SDS011;67558;52.166;5.004;2023-08-08T04:32:50;22.33;;;21.42;;
71383;SDS011;67558;52.166;5.004;2023-08-08T04:35:16;24.02;;;23.13;;
71383;SDS011;67558;52.166;5.004;2023-08-08T04:37:42;20.23;;;19.23;;
71383;SDS011;67558;52.166;5.004;2023-08-08T04:40:09;19.77;;;18.92;;
71383;SDS011;67558;52.166;5.004;2023-08-08T04:42:36;21.88;;;21.05;;
71383;SDS011;67558;52.166;5.004;2023-08-08T04:45:02;20.70;;;19.63;;
71383;SDS011;67558;52.166;5.004;2023-08-08T04:47:29;20.35;;;19.45;;
71383;SDS011;67558;52.166;5.004;2023-08-08T04:49:55;20.98;;;20.17;;
71383;SDS011;67558;52.166;5.004;2023-08-08T04:52:22;22.95;;;22.15;;
71383;SDS011;67558;52.166;5.004;2023-08-08T04:54:48;19.65;;;19.05;;
71383;SDS011;67558;52.166;5.004;2023-08-08T04:57:14;20.58;;;19.83;;
71383;SDS011;67558;52.166;5.004;2023-08-08T04:59:40;20.92;;;20.13;;
71383;SDS011;67558;52.166;5.004;2023-08-08T05:02:05;25.23;;;24.42;;
71383;SDS011;67558;52.166;5.004;2023-08-08T05:04:31;21.08;;;20.13;;
71383;SDS011;67558;52.166;5.004;2023-08-08T05:06:57;22.45;;;21.67;;
71383;SDS011;67558;52.166;5.004;2023-08-08T05:09:23;24.80;;;23.80;;
71383;SDS011;67558;52.166;5.004;2023-08-08T05:11:52;22.20;;;21.15;;
71383;SDS011;67558;52.166;5.004;2023-08-08T05:14:18;20.15;;;19.33;;
71383;SDS011;67558;52.166;5.004;2023-08-08T05:16:46;20.33;;;19.52;;
71383;SDS011;67558;52.166;5.004;2023-08-08T05:19:12;19.15;;;18.50;;
71383;SDS011;67558;52.166;5.004;2023-08-08T05:21:38;20.92;;;20.23;;
71383;SDS011;67558;52.166;5.004;2023-08-08T05:24:04;23.45;;;22.17;;
71383;SDS011;67558;52.166;5.004;2023-08-08T05:26:30;23.52;;;22.42;;
71383;SDS011;67558;52.166;5.004;2023-08-08T05:28:56;23.65;;;22.38;;
71383;SDS011;67558;52.166;5.004;2023-08-08T05:31:22;20.92;;;20.00;;
71383;SDS011;67558;52.166;5.004;2023-08-08T05:33:48;20.20;;;19.40;;
71383;SDS011;67558;52.166;5.004;2023-08-08T05:36:16;20.20;;;19.50;;
71383;SDS011;67558;52.166;5.004;2023-08-08T05:38:42;22.98;;;22.15;;
71383;SDS011;67558;52.166;5.004;2023-08-08T05:41:08;25.20;;;24.17;;
71383;SDS011;67558;52.166;5.004;2023-08-08T05:43:34;21.13;;;20.30;;
71383;SDS011;67558;52.166;5.004;2023-08-08T05:46:00;21.38;;;20.67;;
71383;SDS011;67558;52.166;5.004;2023-08-08T05:48:26;23.80;;;22.67;;
71383;SDS011;67558;52.166;5.004;2023-08-08T05:50:52;21.05;;;20.25;;
71383;SDS011;67558;52.166;5.004;2023-08-08T05:53:18;25.02;;;24.27;;
71383;SDS011;67558;52.166;5.004;2023-08-08T05:55:44;21.17;;;20.25;;
71383;SDS011;67558;52.166;5.004;2023-08-08T05:58:10;23.83;;;22.77;;
71383;SDS011;67558;52.166;5.004;2023-08-08T06:00:37;24.85;;;23.75;;
71383;SDS011;67558;52.166;5.004;2023-08-08T06:03:02;23.25;;;22.35;;
71383;SDS011;67558;52.166;5.004;2023-08-08T06:05:28;24.67;;;23.90;;
71383;SDS011;67558;52.166;5.004;2023-08-08T06:07:54;23.00;;;22.30;;
71383;SDS011;67558;52.166;5.004;2023-08-08T06:10:20;25.60;;;24.75;;
71383;SDS011;67558;52.166;5.004;2023-08-08T06:12:46;26.20;;;25.38;;
71383;SDS011;67558;52.166;5.004;2023-08-08T06:15:11;27.38;;;26.52;;
71383;SDS011;67558;52.166;5.004;2023-08-08T06:17:37;24.98;;;24.08;;
71383;SDS011;67558;52.166;5.004;2023-08-08T06:20:02;26.15;;;25.42;;
71383;SDS011;67558;52.166;5.004;2023-08-08T06:22:28;26.15;;;25.35;;
71383;SDS011;67558;52.166;5.004;2023-08-08T06:24:53;24.88;;;24.17;;
71383;SDS011;67558;52.166;5.004;2023-08-08T06:27:18;26.88;;;26.00;;
71383;SDS011;67558;52.166;5.004;2023-08-08T06:29:44;26.20;;;25.30;;
71383;SDS011;67558;52.166;5.004;2023-08-08T06:32:09;27.02;;;26.23;;
71383;SDS011;67558;52.166;5.004;2023-08-08T06:34:34;27.00;;;26.15;;
71383;SDS011;67558;52.166;5.004;2023-08-08T06:37:00;27.27;;;26.45;;
71383;SDS011;67558;52.166;5.004;2023-08-08T06:39:25;25.05;;;24.25;;
71383;SDS011;67558;52.166;5.004;2023-08-08T06:41:51;26.30;;;25.50;;
71383;SDS011;67558;52.166;5.004;2023-08-08T06:44:16;22.70;;;21.80;;
71383;SDS011;67558;52.166;5.004;2023-08-08T06:46:42;26.50;;;25.67;;
71383;SDS011;67558;52.166;5.004;2023-08-08T06:49:08;26.45;;;25.02;;
71383;SDS011;67558;52.166;5.004;2023-08-08T06:51:35;25.85;;;25.08;;
71383;SDS011;67558;52.166;5.004;2023-08-08T06:54:00;28.52;;;27.63;;
71383;SDS011;67558;52.166;5.004;2023-08-08T06:56:26;29.33;;;28.33;;
71383;SDS011;67558;52.166;5.004;2023-08-08T06:58:52;26.17;;;25.20;;
71383;SDS011;67558;52.166;5.004;2023-08-08T07:01:19;28.08;;;27.20;;
71383;SDS011;67558;52.166;5.004;2023-08-08T07:03:45;27.60;;;26.60;;
71383;SDS011;67558;52.166;5.004;2023-08-08T07:06:13;29.95;;;29.00;;
71383;SDS011;67558;52.166;5.004;2023-08-08T07:08:39;26.98;;;26.08;;
71383;SDS011;67558;52.166;5.004;2023-08-08T07:11:05;32.50;;;31.52;;
71383;SDS011;67558;52.166;5.004;2023-08-08T07:13:36;32.55;;;31.45;;
71383;SDS011;67558;52.166;5.004;2023-08-08T07:16:01;30.80;;;29.75;;
71383;SDS011;67558;52.166;5.004;2023-08-08T07:18:28;31.08;;;29.90;;
71383;SDS011;67558;52.166;5.004;2023-08-08T07:20:54;30.13;;;29.20;;
71383;SDS011;67558;52.166;5.004;2023-08-08T07:23:22;35.28;;;34.28;;
71383;SDS011;67558;52.166;5.004;2023-08-08T07:25:48;35.10;;;34.00;;
71383;SDS011;67558;52.166;5.004;2023-08-08T07:28:13;29.55;;;28.55;;
71383;SDS011;67558;52.166;5.004;2023-08-08T07:30:41;33.22;;;32.08;;
71383;SDS011;67558;52.166;5.004;2023-08-08T07:33:07;33.22;;;32.20;;
71383;SDS011;67558;52.166;5.004;2023-08-08T07:35:36;32.70;;;31.70;;
71383;SDS011;67558;52.166;5.004;2023-08-08T07:38:01;35.75;;;34.72;;
71383;SDS011;67558;52.166;5.004;2023-08-08T07:40:28;29.88;;;28.88;;
71383;SDS011;67558;52.166;5.004;2023-08-08T07:42:54;32.47;;;31.58;;
71383;SDS011;67558;52.166;5.004;2023-08-08T07:45:20;29.80;;;28.90;;
71383;SDS011;67558;52.166;5.004;2023-08-08T07:47:45;29.83;;;28.85;;
71383;SDS011;67558;52.166;5.004;2023-08-08T07:50:12;34.25;;;33.13;;
71383;SDS011;67558;52.166;5.004;2023-08-08T07:52:38;32.78;;;31.80;;
71383;SDS011;67558;52.166;5.004;2023-08-08T07:55:04;35.25;;;34.15;;
71383;SDS011;67558;52.166;5.004;2023-08-08T07:57:30;32.85;;;31.83;;
71383;SDS011;67558;52.166;5.004;2023-08-08T07:59:56;33.75;;;32.55;;
71383;SDS011;67558;52.166;5.004;2023-08-08T08:02:21;32.83;;;31.83;;
71383;SDS011;67558;52.166;5.004;2023-08-08T08:04:47;39.03;;;38.03;;
71383;SDS011;67558;52.166;5.004;2023-08-08T08:07:12;35.38;;;34.38;;
71383;SDS011;67558;52.166;5.004;2023-08-08T08:09:38;36.45;;;35.22;;
71383;SDS011;67558;52.166;5.004;2023-08-08T08:12:04;30.65;;;29.75;;
71383;SDS011;67558;52.166;5.004;2023-08-08T08:14:30;32.42;;;31.33;;
71383;SDS011;67558;52.166;5.004;2023-08-08T08:16:55;36.55;;;35.35;;
71383;SDS011;67558;52.166;5.004;2023-08-08T08:19:20;31.15;;;30.15;;
71383;SDS011;67558;52.166;5.004;2023-08-08T08:21:46;33.67;;;32.63;;
71383;SDS011;67558;52.166;5.004;2023-08-08T08:24:11;31.23;;;30.23;;
71383;SDS011;67558;52.166;5.004;2023-08-08T08:26:36;35.15;;;34.25;;
71383;SDS011;67558;52.166;5.004;2023-08-08T08:29:02;34.60;;;33.70;;
71383;SDS011;67558;52.166;5.004;2023-08-08T08:31:27;34.78;;;33.67;;
71383;SDS011;67558;52.166;5.004;2023-08-08T08:33:54;33.05;;;32.13;;
71383;SDS011;67558;52.166;5.004;2023-08-08T08:36:22;35.65;;;34.38;;
71383;SDS011;67558;52.166;5.004;2023-08-08T08:38:48;39.08;;;37.97;;
71383;SDS011;67558;52.166;5.004;2023-08-08T08:41:17;34.60;;;33.55;;
71383;SDS011;67558;52.166;5.004;2023-08-08T08:46:09;32.17;;;31.27;;
71383;SDS011;67558;52.166;5.004;2023-08-08T08:48:36;29.60;;;28.77;;
71383;SDS011;67558;52.166;5.004;2023-08-08T08:51:02;36.20;;;35.03;;
71383;SDS011;67558;52.166;5.004;2023-08-08T08:53:28;40.65;;;39.33;;
71383;SDS011;67558;52.166;5.004;2023-08-08T08:55:54;31.88;;;30.92;;
71383;SDS011;67558;52.166;5.004;2023-08-08T08:58:22;39.78;;;38.65;;
71383;SDS011;67558;52.166;5.004;2023-08-08T09:00:47;34.15;;;32.75;;
71383;SDS011;67558;52.166;5.004;2023-08-08T09:03:13;37.10;;;36.10;;
71383;SDS011;67558;52.166;5.004;2023-08-08T09:05:39;29.33;;;28.42;;
71383;SDS011;67558;52.166;5.004;2023-08-08T09:08:06;32.78;;;31.88;;
71383;SDS011;67558;52.166;5.004;2023-08-08T09:10:34;30.30;;;29.20;;
71383;SDS011;67558;52.166;5.004;2023-08-08T09:13:00;34.70;;;33.53;;
71383;SDS011;67558;52.166;5.004;2023-08-08T09:15:33;35.03;;;34.08;;
71383;SDS011;67558;52.166;5.004;2023-08-08T09:18:00;36.65;;;35.40;;
71383;SDS011;67558;52.166;5.004;2023-08-08T09:20:26;34.25;;;33.25;;
71383;SDS011;67558;52.166;5.004;2023-08-08T09:22:55;34.55;;;33.60;;
71383;SDS011;67558;52.166;5.004;2023-08-08T09:25:21;35.13;;;33.92;;
71383;SDS011;67558;52.166;5.004;2023-08-08T09:27:48;32.78;;;31.75;;
71383;SDS011;67558;52.166;5.004;2023-08-08T09:30:15;32.80;;;31.80;;
71383;SDS011;67558;52.166;5.004;2023-08-08T09:32:42;34.47;;;33.35;;
71383;SDS011;67558;52.166;5.004;2023-08-08T09:35:09;34.53;;;33.53;;
71383;SDS011;67558;52.166;5.004;2023-08-08T09:37:35;33.88;;;32.88;;
71383;SDS011;67558;52.166;5.004;2023-08-08T09:40:02;32.58;;;31.48;;
71383;SDS011;67558;52.166;5.004;2023-08-08T09:42:31;33.58;;;32.55;;
71383;SDS011;67558;52.166;5.004;2023-08-08T09:44:57;36.15;;;35.05;;
71383;SDS011;67558;52.166;5.004;2023-08-08T09:47:27;38.45;;;37.25;;
71383;SDS011;67558;52.166;5.004;2023-08-08T09:50:00;30.63;;;29.63;;
71383;SDS011;67558;52.166;5.004;2023-08-08T09:52:31;37.78;;;36.65;;
71383;SDS011;67558;52.166;5.004;2023-08-08T09:54:59;34.95;;;33.85;;
71383;SDS011;67558;52.166;5.004;2023-08-08T09:57:25;36.80;;;35.70;;
71383;SDS011;67558;52.166;5.004;2023-08-08T09:59:54;34.35;;;33.35;;
71383;SDS011;67558;52.166;5.004;2023-08-08T10:02:21;36.63;;;35.50;;
71383;SDS011;67558;52.166;5.004;2023-08-08T10:04:46;31.20;;;30.30;;
71383;SDS011;67558;52.166;5.004;2023-08-08T10:07:12;33.65;;;32.65;;
71383;SDS011;67558;52.166;5.004;2023-08-08T10:09:38;32.67;;;31.67;;
71383;SDS011;67558;52.166;5.004;2023-08-08T10:12:04;39.22;;;37.97;;
71383;SDS011;67558;52.166;5.004;2023-08-08T10:14:35;32.25;;;31.30;;
71383;SDS011;67558;52.166;5.004;2023-08-08T10:17:04;33.78;;;32.72;;
71383;SDS011;67558;52.166;5.004;2023-08-08T10:19:32;35.22;;;34.08;;
71383;SDS011;67558;52.166;5.004;2023-08-08T10:21:59;33.58;;;32.63;;
71383;SDS011;67558;52.166;5.004;2023-08-08T10:24:32;34.03;;;33.03;;
71383;SDS011;67558;52.166;5.004;2023-08-08T10:27:01;36.42;;;35.35;;
71383;SDS011;67558;52.166;5.004;2023-08-08T10:29:28;34.42;;;33.50;;
71383;SDS011;67558;52.166;5.004;2023-08-08T10:32:00;34.33;;;33.33;;
71383;SDS011;67558;52.166;5.004;2023-08-08T10:34:36;37.45;;;36.42;;
71383;SDS011;67558;52.166;5.004;2023-08-08T10:37:04;36.58;;;35.58;;
71383;SDS011;67558;52.166;5.004;2023-08-08T10:39:33;33.10;;;32.10;;
71383;SDS011;67558;52.166;5.004;2023-08-08T10:42:00;36.22;;;35.10;;
71383;SDS011;67558;52.166;5.004;2023-08-08T10:44:30;36.42;;;35.42;;
71383;SDS011;67558;52.166;5.004;2023-08-08T10:46:59;37.22;;;36.10;;
71383;SDS011;67558;52.166;5.004;2023-08-08T10:49:27;37.47;;;36.38;;
71383;SDS011;67558;52.166;5.004;2023-08-08T10:51:53;39.38;;;38.28;;
71383;SDS011;67558;52.166;5.004;2023-08-08T10:54:19;37.70;;;36.58;;
71383;SDS011;67558;52.166;5.004;2023-08-08T10:56:49;39.78;;;38.30;;
71383;SDS011;67558;52.166;5.004;2023-08-08T10:59:19;34.35;;;33.45;;
71383;SDS011;67558;52.166;5.004;2023-08-08T11:01:47;34.80;;;33.80;;
71383;SDS011;67558;52.166;5.004;2023-08-08T11:04:22;36.30;;;35.30;;
71383;SDS011;67558;52.166;5.004;2023-08-08T11:06:49;38.53;;;37.45;;
71383;SDS011;67558;52.166;5.004;2023-08-08T11:09:16;37.05;;;35.97;;
71383;SDS011;67558;52.166;5.004;2023-08-08T11:11:43;37.65;;;36.65;;
71383;SDS011;67558;52.166;5.004;2023-08-08T11:14:13;35.83;;;34.83;;
71383;SDS011;67558;52.166;5.004;2023-08-08T11:19:08;35.05;;;33.70;;
71383;SDS011;67558;52.166;5.004;2023-08-08T11:21:40;34.92;;;33.85;;
71383;SDS011;67558;52.166;5.004;2023-08-08T11:24:10;36.33;;;35.22;;
71383;SDS011;67558;52.166;5.004;2023-08-08T11:26:37;36.78;;;35.67;;
71383;SDS011;67558;52.166;5.004;2023-08-08T11:29:06;36.53;;;35.35;;
71383;SDS011;67558;52.166;5.004;2023-08-08T11:31:32;33.15;;;32.25;;
71383;SDS011;67558;52.166;5.004;2023-08-08T11:34:03;35.10;;;34.08;;
71383;SDS011;67558;52.166;5.004;2023-08-08T11:36:30;35.10;;;34.10;;
71383;SDS011;67558;52.166;5.004;2023-08-08T11:38:58;37.35;;;36.15;;
71383;SDS011;67558;52.166;5.004;2023-08-08T11:41:26;38.10;;;37.03;;
71383;SDS011;67558;52.166;5.004;2023-08-08T11:43:52;35.90;;;34.90;;
71383;SDS011;67558;52.166;5.004;2023-08-08T11:46:22;39.63;;;38.33;;
71383;SDS011;67558;52.166;5.004;2023-08-08T11:48:48;38.80;;;37.67;;
71383;SDS011;67558;52.166;5.004;2023-08-08T11:51:14;35.22;;;34.22;;
71383;SDS011;67558;52.166;5.004;2023-08-08T11:53:50;38.17;;;36.92;;
71383;SDS011;67558;52.166;5.004;2023-08-08T11:56:21;36.13;;;35.05;;
71383;SDS011;67558;52.166;5.004;2023-08-08T11:58:51;36.65;;;35.55;;
71383;SDS011;67558;52.166;5.004;2023-08-08T12:01:21;38.88;;;37.83;;
71383;SDS011;67558;52.166;5.004;2023-08-08T12:06:16;35.22;;;34.13;;
71383;SDS011;67558;52.166;5.004;2023-08-08T12:08:43;38.33;;;37.17;;
71383;SDS011;67558;52.166;5.004;2023-08-08T12:11:10;36.05;;;34.90;;
71383;SDS011;67558;52.166;5.004;2023-08-08T12:13:43;36.40;;;35.30;;
71383;SDS011;67558;52.166;5.004;2023-08-08T12:16:09;37.53;;;36.50;;
71383;SDS011;67558;52.166;5.004;2023-08-08T12:18:37;36.63;;;35.38;;
71383;SDS011;67558;52.166;5.004;2023-08-08T12:21:07;39.65;;;38.60;;
71383;SDS011;67558;52.166;5.004;2023-08-08T12:23:34;38.83;;;37.72;;
71383;SDS011;67558;52.166;5.004;2023-08-08T12:26:05;40.40;;;39.30;;
71383;SDS011;67558;52.166;5.004;2023-08-08T12:28:34;40.30;;;38.95;;
71383;SDS011;67558;52.166;5.004;2023-08-08T12:31:00;32.75;;;31.73;;
71383;SDS011;67558;52.166;5.004;2023-08-08T12:33:27;37.50;;;36.40;;
71383;SDS011;67558;52.166;5.004;2023-08-08T12:35:53;39.40;;;38.08;;
71383;SDS011;67558;52.166;5.004;2023-08-08T12:38:19;36.08;;;35.03;;
71383;SDS011;67558;52.166;5.004;2023-08-08T12:40:45;35.53;;;34.53;;
71383;SDS011;67558;52.166;5.004;2023-08-08T12:43:12;39.15;;;37.78;;
71383;SDS011;67558;52.166;5.004;2023-08-08T12:45:45;32.53;;;31.38;;
71383;SDS011;67558;52.166;5.004;2023-08-08T12:48:11;36.97;;;35.90;;
71383;SDS011;67558;52.166;5.004;2023-08-08T12:50:37;35.08;;;34.03;;
71383;SDS011;67558;52.166;5.004;2023-08-08T12:53:03;38.05;;;36.83;;
71383;SDS011;67558;52.166;5.004;2023-08-08T12:55:29;37.78;;;36.67;;
71383;SDS011;67558;52.166;5.004;2023-08-08T12:57:55;36.22;;;35.15;;
71383;SDS011;67558;52.166;5.004;2023-08-08T13:00:20;34.50;;;33.50;;
71383;SDS011;67558;52.166;5.004;2023-08-08T13:02:46;41.35;;;40.20;;
71383;SDS011;67558;52.166;5.004;2023-08-08T13:05:12;36.35;;;35.00;;
71383;SDS011;67558;52.166;5.004;2023-08-08T13:07:37;37.38;;;35.88;;
71383;SDS011;67558;52.166;5.004;2023-08-08T13:10:03;36.28;;;35.28;;
71383;SDS011;67558;52.166;5.004;2023-08-08T13:12:28;41.30;;;39.88;;
71383;SDS011;67558;52.166;5.004;2023-08-08T13:14:54;37.30;;;36.15;;
71383;SDS011;67558;52.166;5.004;2023-08-08T13:17:19;34.75;;;33.65;;
71383;SDS011;67558;52.166;5.004;2023-08-08T13:19:44;35.20;;;33.85;;
71383;SDS011;67558;52.166;5.004;2023-08-08T13:22:10;37.45;;;36.38;;
71383;SDS011;67558;52.166;5.004;2023-08-08T13:24:36;35.63;;;34.30;;
71383;SDS011;67558;52.166;5.004;2023-08-08T13:27:01;35.58;;;34.58;;
71383;SDS011;67558;52.166;5.004;2023-08-08T13:29:27;34.00;;;33.10;;
71383;SDS011;67558;52.166;5.004;2023-08-08T13:31:52;36.60;;;35.58;;
71383;SDS011;67558;52.166;5.004;2023-08-08T13:34:17;42.63;;;41.50;;
71383;SDS011;67558;52.166;5.004;2023-08-08T13:36:43;33.60;;;32.67;;
71383;SDS011;67558;52.166;5.004;2023-08-08T13:39:09;35.45;;;34.22;;
71383;SDS011;67558;52.166;5.004;2023-08-08T13:41:35;38.60;;;37.45;;
71383;SDS011;67558;52.166;5.004;2023-08-08T13:44:00;41.13;;;39.92;;
71383;SDS011;67558;52.166;5.004;2023-08-08T13:46:25;36.03;;;34.92;;
71383;SDS011;67558;52.166;5.004;2023-08-08T13:48:51;37.08;;;35.97;;
71383;SDS011;67558;52.166;5.004;2023-08-08T13:51:16;35.40;;;34.40;;
71383;SDS011;67558;52.166;5.004;2023-08-08T13:53:42;36.42;;;35.33;;
71383;SDS011;67558;52.166;5.004;2023-08-08T13:56:08;41.53;;;40.20;;
71383;SDS011;67558;52.166;5.004;2023-08-08T13:58:36;37.38;;;36.17;;
71383;SDS011;67558;52.166;5.004;2023-08-08T14:01:01;41.47;;;39.22;;
71383;SDS011;67558;52.166;5.004;2023-08-08T14:03:27;37.75;;;36.65;;
71383;SDS011;67558;52.166;5.004;2023-08-08T14:05:52;35.47;;;34.38;;
71383;SDS011;67558;52.166;5.004;2023-08-08T14:08:17;39.85;;;38.70;;
71383;SDS011;67558;52.166;5.004;2023-08-08T14:10:43;35.72;;;34.10;;
71383;SDS011;67558;52.166;5.004;2023-08-08T14:13:09;36.72;;;35.72;;
71383;SDS011;67558;52.166;5.004;2023-08-08T14:15:36;38.80;;;37.70;;
71383;SDS011;67558;52.166;5.004;2023-08-08T14:18:01;36.67;;;35.70;;
71383;SDS011;67558;52.166;5.004;2023-08-08T14:20:27;37.63;;;36.55;;
71383;SDS011;67558;52.166;5.004;2023-08-08T14:22:52;38.65;;;37.38;;
71383;SDS011;67558;52.166;5.004;2023-08-08T14:25:18;39.25;;;38.05;;
71383;SDS011;67558;52.166;5.004;2023-08-08T14:27:43;36.22;;;35.22;;